createdAt,value
2023-05-10T00:02:06.398Z,11.25
2023-05-10T00:05:04.329Z,13.85
2023-05-10T00:08:02.260Z,16.63
2023-05-10T00:11:00.041Z,14.50
2023-05-10T00:13:57.958Z,11.18
2023-05-10T00:16:56.038Z,15.60
2023-05-10T00:19:53.991Z,14.40
2023-05-10T00:22:51.751Z,12.15
2023-05-10T00:25:49.610Z,13.18
2023-05-10T00:28:47.399Z,13.57
2023-05-10T00:31:45.421Z,11.82
2023-05-10T00:34:43.253Z,12.93
2023-05-10T00:37:41.235Z,13.48
2023-05-10T00:40:39.346Z,12.50
2023-05-10T00:43:37.424Z,12.55
2023-05-10T00:46:35.467Z,10.13
2023-05-10T00:49:33.586Z,11.65
2023-05-10T00:52:31.785Z,11.20
2023-05-10T00:55:29.904Z,15.38
2023-05-10T00:58:29.779Z,15.77
2023-05-10T01:01:27.831Z,11.27
2023-05-10T01:04:27.077Z,10.48
2023-05-10T01:07:25.045Z,12.25
2023-05-10T01:10:23.041Z,14.88
2023-05-10T01:13:39.643Z,12.68
2023-05-10T01:16:40.030Z,12.48
2023-05-10T01:19:39.304Z,13.13
2023-05-10T01:23:07.663Z,13.57
2023-05-10T01:26:35.163Z,13.75
2023-05-10T01:33:23.211Z,12.95
2023-05-10T01:36:44.315Z,12.13
2023-05-10T01:39:51.622Z,11.60
2023-05-10T01:42:56.882Z,11.77
2023-05-10T01:46:06.785Z,10.32
2023-05-10T01:49:10.269Z,13.55
2023-05-10T01:52:13.950Z,9.43
2023-05-10T01:55:17.582Z,16.27
2023-05-10T01:58:20.694Z,17.50
2023-05-10T02:01:20.243Z,15.02
2023-05-10T02:04:20.509Z,17.38
2023-05-10T02:07:19.182Z,9.55
2023-05-10T02:10:19.024Z,12.80
2023-05-10T02:13:19.652Z,10.93
2023-05-10T02:16:19.567Z,8.95
2023-05-10T02:19:18.850Z,9.45
2023-05-10T02:22:18.059Z,13.23
2023-05-10T02:25:17.194Z,12.85
2023-05-10T02:28:16.181Z,20.15
2023-05-10T02:31:14.903Z,17.95
2023-05-10T02:34:14.007Z,14.98
2023-05-10T02:37:12.574Z,20.23
2023-05-10T02:40:12.572Z,12.10
2023-05-10T02:43:15.995Z,12.18
2023-05-10T02:46:14.038Z,11.52
2023-05-10T02:49:12.200Z,9.85
2023-05-10T02:52:11.788Z,17.25
2023-05-10T02:55:13.323Z,8.07
2023-05-10T02:58:11.752Z,11.15
2023-05-10T03:01:10.213Z,10.00
2023-05-10T03:04:08.796Z,10.75
2023-05-10T03:07:07.040Z,8.55
2023-05-10T03:10:06.304Z,13.13
2023-05-10T03:13:36.964Z,9.55
2023-05-10T03:16:48.432Z,11.30
2023-05-10T03:19:56.020Z,23.70
2023-05-10T03:23:02.976Z,18.45
2023-05-10T03:26:02.146Z,16.15
2023-05-10T03:29:01.203Z,23.70
2023-05-10T03:32:01.606Z,27.73
2023-05-10T03:34:59.728Z,30.65
2023-05-10T03:37:57.526Z,26.85
2023-05-10T03:40:55.448Z,21.55
2023-05-10T03:43:53.566Z,22.48
2023-05-10T03:46:51.581Z,19.55
2023-05-10T03:49:49.458Z,31.92
2023-05-10T03:52:48.256Z,30.58
2023-05-10T03:55:46.399Z,23.90
2023-05-10T03:58:44.323Z,22.95
2023-05-10T04:01:42.133Z,23.02
2023-05-10T04:04:40.097Z,28.08
2023-05-10T04:07:37.903Z,24.15
2023-05-10T04:10:35.952Z,28.00
2023-05-10T04:13:34.006Z,19.98
2023-05-10T04:16:31.989Z,18.95
2023-05-10T04:19:31.968Z,21.88
2023-05-10T04:22:30.789Z,24.08
2023-05-10T04:25:28.612Z,12.70
2023-05-10T04:28:26.517Z,22.65
2023-05-10T04:31:24.429Z,17.02
2023-05-10T04:34:23.019Z,19.10
2023-05-10T04:37:21.493Z,12.90
2023-05-10T04:40:19.537Z,17.40
2023-05-10T04:43:17.426Z,15.43
2023-05-10T04:46:15.358Z,23.85
2023-05-10T04:49:13.332Z,19.80
2023-05-10T04:52:11.212Z,20.10
2023-05-10T04:55:11.168Z,21.98
2023-05-10T04:58:09.210Z,21.98
2023-05-10T05:01:09.609Z,17.23
2023-05-10T05:04:08.447Z,17.08
2023-05-10T05:07:06.376Z,26.95
2023-05-10T05:10:04.812Z,22.33
2023-05-10T05:13:02.689Z,20.30
2023-05-10T05:16:03.948Z,17.45
2023-05-10T05:19:02.576Z,17.77
2023-05-10T05:22:00.549Z,24.73
2023-05-10T05:24:59.768Z,24.83
2023-05-10T05:27:57.730Z,29.13
2023-05-10T05:30:55.520Z,24.77
2023-05-10T05:33:53.424Z,21.70
2023-05-10T05:36:51.633Z,20.50
2023-05-10T05:39:50.060Z,19.65
2023-05-10T05:42:47.877Z,21.38
2023-05-10T05:45:45.818Z,25.00
2023-05-10T05:48:43.658Z,22.48
2023-05-10T05:51:41.585Z,24.92
2023-05-10T05:54:39.405Z,25.23
2023-05-10T05:57:38.593Z,21.02
2023-05-10T06:00:36.740Z,28.20
2023-05-10T06:03:34.938Z,26.02
2023-05-10T06:06:33.740Z,29.05
2023-05-10T06:09:31.719Z,25.77
2023-05-10T06:12:29.493Z,28.45
2023-05-10T06:15:27.725Z,34.50
2023-05-10T06:18:25.666Z,35.50
2023-05-10T06:21:23.555Z,23.80
2023-05-10T06:24:21.483Z,22.02
2023-05-10T06:27:19.489Z,28.13
2023-05-10T06:30:17.629Z,23.73
2023-05-10T06:33:15.634Z,25.08
2023-05-10T06:36:13.518Z,21.88
2023-05-10T06:39:13.273Z,23.45
2023-05-10T06:42:11.441Z,27.42
2023-05-10T06:45:10.798Z,24.10
2023-05-10T06:48:09.158Z,23.73
2023-05-10T06:51:07.336Z,22.23
2023-05-10T06:54:05.072Z,25.70
2023-05-10T06:57:10.812Z,23.45
2023-05-10T07:00:14.750Z,23.07
2023-05-10T07:03:13.802Z,24.67
2023-05-10T07:06:21.732Z,24.33
2023-05-10T07:09:23.546Z,23.75
2023-05-10T07:12:21.532Z,24.02
2023-05-10T07:15:19.799Z,20.90
2023-05-10T07:18:18.235Z,24.85
2023-05-10T07:21:16.303Z,22.73
2023-05-10T07:24:14.112Z,21.25
2023-05-10T07:27:12.108Z,22.15
2023-05-10T07:30:10.805Z,26.90
2023-05-10T07:33:10.152Z,18.85
2023-05-10T07:36:08.277Z,16.25
2023-05-10T07:39:06.607Z,24.48
2023-05-10T07:42:04.530Z,18.52
2023-05-10T07:45:02.436Z,23.05
2023-05-10T07:48:00.298Z,22.27
2023-05-10T07:50:58.317Z,15.82
2023-05-10T07:53:56.444Z,21.33
2023-05-10T07:56:54.407Z,28.35
2023-05-10T07:59:52.209Z,21.98
2023-05-10T08:02:50.527Z,20.25
2023-05-10T08:05:48.349Z,17.40
2023-05-10T08:08:50.854Z,20.55
2023-05-10T08:11:48.750Z,22.02
2023-05-10T08:14:46.876Z,19.92
2023-05-10T08:17:44.796Z,16.83
2023-05-10T08:20:42.767Z,20.80
2023-05-10T08:23:40.652Z,13.10
2023-05-10T08:26:38.680Z,17.08
2023-05-10T08:29:48.943Z,17.67
2023-05-10T08:32:48.185Z,23.58
2023-05-10T08:35:46.226Z,26.73
2023-05-10T08:38:44.127Z,19.23
2023-05-10T08:41:45.479Z,22.30
2023-05-10T08:44:44.225Z,18.58
2023-05-10T08:47:42.322Z,20.58
2023-05-10T08:50:43.151Z,15.68
2023-05-10T08:53:41.358Z,18.75
2023-05-10T08:56:39.294Z,15.65
2023-05-10T08:59:37.155Z,16.52
2023-05-10T09:02:35.535Z,16.63
2023-05-10T09:05:33.568Z,19.38
2023-05-10T09:08:32.738Z,19.08
2023-05-10T09:11:31.511Z,17.23
2023-05-10T09:14:29.558Z,16.30
2023-05-10T09:17:28.697Z,21.10
2023-05-10T09:20:26.817Z,20.52
2023-05-10T09:23:25.275Z,27.23
2023-05-10T09:26:25.366Z,19.17
2023-05-10T09:29:23.171Z,25.02
2023-05-10T09:32:21.081Z,21.95
2023-05-10T09:35:20.975Z,18.85
2023-05-10T09:38:18.882Z,15.68
2023-05-10T09:41:22.952Z,24.10
2023-05-10T09:44:21.187Z,17.70
2023-05-10T09:47:20.956Z,20.23
2023-05-10T09:50:19.124Z,19.63
2023-05-10T09:53:18.171Z,20.88
2023-05-10T09:56:34.144Z,23.35
2023-05-10T09:59:36.356Z,23.23
2023-05-10T10:02:34.638Z,19.42
2023-05-10T10:05:37.469Z,20.83
2023-05-10T10:08:36.022Z,19.80
2023-05-10T10:11:35.418Z,18.45
2023-05-10T10:14:33.337Z,15.13
2023-05-10T10:17:33.347Z,18.90
2023-05-10T10:20:31.529Z,20.83
2023-05-10T10:23:29.519Z,21.08
2023-05-10T10:26:27.860Z,16.67
2023-05-10T10:29:44.797Z,26.30
2023-05-10T10:33:13.594Z,18.23
2023-05-10T10:36:18.344Z,19.08
2023-05-10T10:39:17.553Z,21.02
2023-05-10T10:42:15.341Z,18.75
2023-05-10T10:45:15.459Z,18.55
2023-05-10T10:48:28.754Z,20.45
2023-05-10T10:51:30.188Z,19.77
2023-05-10T10:54:30.402Z,22.77
2023-05-10T10:57:28.952Z,22.88
2023-05-10T11:00:32.298Z,16.58
2023-05-10T11:03:31.008Z,24.02
2023-05-10T11:06:37.669Z,21.85
2023-05-10T11:09:42.091Z,19.48
2023-05-10T11:13:08.164Z,23.67
2023-05-10T11:16:22.414Z,22.52
2023-05-10T11:19:21.237Z,20.27
2023-05-10T11:22:19.904Z,23.67
2023-05-10T11:25:17.640Z,25.30
2023-05-10T11:28:15.587Z,20.05
2023-05-10T11:31:16.832Z,19.42
2023-05-10T11:34:26.180Z,21.42
2023-05-10T11:37:23.950Z,16.23
2023-05-10T11:40:26.168Z,17.90
2023-05-10T11:43:29.744Z,18.42
2023-05-10T11:46:29.885Z,17.35
2023-05-10T11:49:28.155Z,22.10
2023-05-10T11:52:26.222Z,14.23
2023-05-10T11:55:25.608Z,20.23
2023-05-10T11:58:24.983Z,19.23
2023-05-10T12:01:23.598Z,17.17
2023-05-10T12:04:22.612Z,17.75
2023-05-10T12:07:20.515Z,16.80
2023-05-10T12:10:26.328Z,17.70
2023-05-10T12:13:24.134Z,21.40
2023-05-10T12:16:25.403Z,19.50
2023-05-10T12:19:23.247Z,18.30
2023-05-10T12:22:23.387Z,18.45
2023-05-10T12:25:23.384Z,18.20
2023-05-10T12:28:22.274Z,25.48
2023-05-10T12:31:20.232Z,13.20
2023-05-10T12:34:34.760Z,16.58
2023-05-10T12:37:32.531Z,16.70
2023-05-10T12:40:30.990Z,17.15
2023-05-10T12:43:28.970Z,17.08
2023-05-10T12:46:29.432Z,16.80
2023-05-10T12:49:27.268Z,18.88
2023-05-10T12:52:26.026Z,20.25
2023-05-10T12:55:23.875Z,16.88
2023-05-10T13:01:25.553Z,18.13
2023-05-10T13:04:23.500Z,13.65
2023-05-10T13:07:21.592Z,17.20
2023-05-10T13:10:19.904Z,15.63
2023-05-10T13:13:17.975Z,16.92
2023-05-10T13:16:15.972Z,15.73
2023-05-10T13:19:15.190Z,20.20
2023-05-10T13:22:13.127Z,63.13
2023-05-10T13:25:11.151Z,43.75
2023-05-10T13:28:09.026Z,20.95
2023-05-10T13:31:06.889Z,21.63
2023-05-10T13:34:05.360Z,19.10
2023-05-10T13:37:03.530Z,16.67
2023-05-10T13:40:01.490Z,16.70
2023-05-10T13:42:59.345Z,17.90
2023-05-10T13:45:57.352Z,18.42
2023-05-10T13:48:55.463Z,15.18
2023-05-10T13:51:54.078Z,15.95
2023-05-10T13:54:53.521Z,15.13
2023-05-10T13:57:51.665Z,18.15
2023-05-10T14:00:49.610Z,18.90
2023-05-10T14:03:47.880Z,19.23
2023-05-10T14:06:45.727Z,19.30
2023-05-10T14:09:43.605Z,19.77
2023-05-10T14:12:41.400Z,18.02
2023-05-10T14:15:39.414Z,18.02
2023-05-10T14:18:37.214Z,21.10
2023-05-10T14:21:35.588Z,21.10
2023-05-10T14:24:33.920Z,19.73
2023-05-10T14:27:32.037Z,20.50
2023-05-10T14:30:29.802Z,20.77
2023-05-10T14:33:27.792Z,19.30
2023-05-10T14:36:25.773Z,21.70
2023-05-10T14:39:24.972Z,26.17
2023-05-10T14:42:22.856Z,23.95
2023-05-10T14:45:21.282Z,22.63
2023-05-10T14:48:19.151Z,17.23
2023-05-10T14:51:17.065Z,17.92
2023-05-10T14:54:14.815Z,22.98
2023-05-10T14:57:12.828Z,18.67
2023-05-10T15:00:11.268Z,19.45
2023-05-10T15:03:09.911Z,17.58
2023-05-10T15:06:09.766Z,20.23
2023-05-10T15:09:07.747Z,19.73
2023-05-10T15:12:05.543Z,20.23
2023-05-10T15:15:03.774Z,26.77
2023-05-10T15:18:01.607Z,22.63
2023-05-10T15:20:59.558Z,22.67
2023-05-10T15:23:57.347Z,18.25
2023-05-10T15:26:55.527Z,29.38
2023-05-10T15:29:53.855Z,26.20
2023-05-10T15:32:51.854Z,24.70
2023-05-10T15:35:49.942Z,19.25
2023-05-10T15:38:47.821Z,20.13
2023-05-10T15:41:45.591Z,15.98
2023-05-10T15:44:45.537Z,17.55
2023-05-10T15:47:43.473Z,16.73
2023-05-10T15:50:42.004Z,15.55
2023-05-10T15:53:46.675Z,14.77
2023-05-10T15:56:50.946Z,16.73
2023-05-10T15:59:48.913Z,15.18
2023-05-10T16:02:46.837Z,19.13
2023-05-10T16:05:44.713Z,17.23
2023-05-10T16:08:42.698Z,17.08
2023-05-10T16:11:40.545Z,13.27
2023-05-10T16:14:38.424Z,15.07
2023-05-10T16:17:36.377Z,11.98
2023-05-10T16:20:34.462Z,11.20
2023-05-10T16:23:32.637Z,13.35
2023-05-10T16:26:30.542Z,12.25
2023-05-10T16:29:28.355Z,10.57
2023-05-10T16:32:26.395Z,11.82
2023-05-10T16:35:24.474Z,12.95
2023-05-10T16:38:22.518Z,11.00
2023-05-10T16:41:20.299Z,11.35
2023-05-10T16:44:20.414Z,12.02
2023-05-10T16:47:18.852Z,13.07
2023-05-10T16:50:17.771Z,15.57
2023-05-10T16:53:15.541Z,7.93
2023-05-10T16:56:13.469Z,13.57
2023-05-10T16:59:11.292Z,9.77
2023-05-10T17:02:09.298Z,15.77
2023-05-10T17:05:07.403Z,11.20
2023-05-10T17:08:06.391Z,9.85
2023-05-10T17:11:04.727Z,10.43
2023-05-10T17:14:02.749Z,10.90
2023-05-10T17:17:00.885Z,10.25
2023-05-10T17:20:00.202Z,11.10
2023-05-10T17:22:57.967Z,9.18
2023-05-10T17:25:55.996Z,11.10
2023-05-10T17:28:55.065Z,13.43
2023-05-10T17:31:53.147Z,12.93
2023-05-10T17:34:51.045Z,11.07
2023-05-10T17:37:48.998Z,9.00
2023-05-10T17:40:46.838Z,8.68
2023-05-10T17:43:45.242Z,11.07
2023-05-10T17:46:42.999Z,15.75
2023-05-10T17:49:41.400Z,13.23
2023-05-10T17:52:39.216Z,12.10
2023-05-10T17:55:37.235Z,12.60
2023-05-10T17:58:38.634Z,7.70
2023-05-10T18:01:36.665Z,9.02
2023-05-10T18:04:34.768Z,11.60
2023-05-10T18:07:33.096Z,14.77
2023-05-10T18:10:32.049Z,10.15
2023-05-10T18:13:30.125Z,11.07
2023-05-10T18:16:27.935Z,12.50
2023-05-10T18:19:25.892Z,13.38
2023-05-10T18:22:23.693Z,12.52
2023-05-10T18:25:21.703Z,12.57
2023-05-10T18:28:19.671Z,16.60
2023-05-10T18:31:17.547Z,10.32
2023-05-10T18:34:15.354Z,9.43
2023-05-10T18:37:13.311Z,11.63
2023-05-10T18:40:15.105Z,10.35
2023-05-10T18:43:13.094Z,10.27
2023-05-10T18:46:11.030Z,12.55
2023-05-10T18:49:09.124Z,14.15
2023-05-10T18:52:06.922Z,11.45
2023-05-10T18:55:05.278Z,12.50
2023-05-10T18:58:03.116Z,11.73
2023-05-10T19:01:01.073Z,13.15
2023-05-10T19:03:59.395Z,9.43
2023-05-10T19:06:57.402Z,11.65
2023-05-10T19:09:55.261Z,9.43
2023-05-10T19:12:53.176Z,13.38
2023-05-10T19:16:06.039Z,10.40
2023-05-10T19:19:04.385Z,11.77
2023-05-10T19:22:02.908Z,9.80
2023-05-10T19:25:01.009Z,9.80
2023-05-10T19:27:59.614Z,12.73
2023-05-10T19:30:58.024Z,7.72
2023-05-10T19:33:57.079Z,9.77
2023-05-10T19:36:55.948Z,12.35
2023-05-10T19:39:53.876Z,12.60
2023-05-10T19:42:52.935Z,13.52
2023-05-10T19:45:51.396Z,10.63
2023-05-10T19:48:50.924Z,7.55
2023-05-10T19:51:49.275Z,9.95
2023-05-10T19:54:47.182Z,12.27
2023-05-10T19:57:45.976Z,16.17
2023-05-10T20:00:43.986Z,15.50
2023-05-10T20:03:41.911Z,13.70
2023-05-10T20:06:39.874Z,10.77
2023-05-10T20:09:37.678Z,11.80
2023-05-10T20:12:35.816Z,13.27
2023-05-10T20:15:34.088Z,11.00
2023-05-10T20:18:32.071Z,10.75
2023-05-10T20:21:29.913Z,12.13
2023-05-10T20:24:27.816Z,14.27
2023-05-10T20:27:25.824Z,12.20
2023-05-10T20:30:23.771Z,10.05
2023-05-10T20:33:23.050Z,11.55
2023-05-10T20:36:22.039Z,10.82
2023-05-10T20:39:20.011Z,11.85
2023-05-10T20:42:18.238Z,13.57
2023-05-10T20:45:16.444Z,9.73
2023-05-10T20:48:14.383Z,10.50
2023-05-10T20:51:12.173Z,10.90
2023-05-10T20:54:10.094Z,17.40
2023-05-10T20:57:08.465Z,11.88
2023-05-10T21:00:06.949Z,12.35
2023-05-10T21:03:05.103Z,16.40
2023-05-10T21:06:03.171Z,14.77
2023-05-10T21:09:01.197Z,10.82
2023-05-10T21:11:59.385Z,12.93
2023-05-10T21:14:57.201Z,11.50
2023-05-10T21:17:55.442Z,16.35
2023-05-10T21:20:53.286Z,12.18
2023-05-10T21:23:51.232Z,11.20
2023-05-10T21:26:49.002Z,11.68
2023-05-10T21:29:46.889Z,12.07
2023-05-10T21:32:44.976Z,13.38
2023-05-10T21:35:43.337Z,16.33
2023-05-10T21:38:41.730Z,15.88
2023-05-10T21:41:39.698Z,17.02
2023-05-10T21:44:39.184Z,8.90
2023-05-10T21:47:37.124Z,12.63
2023-05-10T21:50:34.951Z,10.15
2023-05-10T21:53:33.038Z,9.70
2023-05-10T21:56:30.823Z,11.10
2023-05-10T21:59:28.729Z,12.13
2023-05-10T22:02:26.680Z,10.45
2023-05-10T22:05:24.664Z,10.73
2023-05-10T22:08:22.435Z,11.13
2023-05-10T22:11:20.326Z,9.50
2023-05-10T22:14:18.096Z,12.15
2023-05-10T22:17:16.013Z,10.95
2023-05-10T22:20:14.338Z,10.40
2023-05-10T22:23:12.312Z,14.55
2023-05-10T22:26:10.063Z,10.60
2023-05-10T22:29:07.942Z,13.98
2023-05-10T22:32:06.916Z,8.27
2023-05-10T22:35:04.983Z,12.93
2023-05-10T22:38:02.725Z,14.88
2023-05-10T22:41:00.651Z,10.40
2023-05-10T22:43:58.732Z,9.90
2023-05-10T22:46:56.720Z,12.32
2023-05-10T22:49:55.761Z,10.30
2023-05-10T22:52:53.661Z,13.20
2023-05-10T22:55:51.981Z,10.57
2023-05-10T22:58:50.840Z,10.40
2023-05-10T23:01:49.483Z,10.50
2023-05-10T23:04:47.494Z,9.40
2023-05-10T23:07:45.253Z,10.02
2023-05-10T23:10:43.270Z,10.05
2023-05-10T23:13:41.044Z,19.73
2023-05-10T23:16:38.993Z,10.90
2023-05-10T23:19:36.854Z,8.73
2023-05-10T23:22:35.601Z,14.85
2023-05-10T23:25:33.386Z,10.38
2023-05-10T23:28:31.466Z,11.48
2023-05-10T23:31:29.300Z,12.82
2023-05-10T23:34:27.216Z,15.90
2023-05-10T23:37:24.990Z,13.13
2023-05-10T23:40:23.127Z,13.30
2023-05-10T23:43:22.162Z,10.40
2023-05-10T23:46:20.170Z,12.50
2023-05-10T23:49:18.061Z,11.65
2023-05-10T23:52:15.910Z,10.68
2023-05-10T23:55:13.729Z,11.73
2023-05-10T23:58:12.259Z,16.10
